Time;durP1;ratioP1;P1;durP2;ratioP2;P2;SDS_P1;SDS_P2;PMS_P1;PMS_P2;Temp;Humidity;BMP_temperature;BMP_pressure;BME280_temperature;BME280_humidity;BME280_pressure;Samples;Min_cycle;Max_cycle;Signal;HPM_P1;HPM_P2
2022/08/20 00:01:02;;;;;;;19.23;7.60;;;;;;;21.22;87.46;99794.97;5035836;28;20103;-82
2022/08/20 00:03:33;;;;;;;22.45;7.57;;;;;;;21.12;86.46;99810.03;5034944;28;20036;-82
2022/08/20 00:06:11;;;;;;;12.50;7.18;;;;;;;21.10;87.72;99804.00;5036001;28;20160;-89
2022/08/20 00:08:36;;;;;;;39.88;8.77;;;;;;;20.97;88.67;99806.69;5038801;28;20611;-92
2022/08/20 00:11:04;;;;;;;32.80;4.85;;;;;;;20.70;89.11;99803.22;5036678;28;20064;-88
2022/08/20 00:13:36;;;;;;;20.20;3.00;;;;;;;20.39;90.24;99790.47;5030689;28;20040;-89
2022/08/20 00:16:03;;;;;;;40.47;6.70;;;;;;;20.51;92.50;99787.84;5038830;28;20036;-93
2022/08/20 00:18:28;;;;;;;19.52;3.78;;;;;;;20.17;90.43;99784.84;5056154;28;20155;-91
2022/08/20 00:20:55;;;;;;;6.28;2.22;;;;;;;20.07;89.87;99782.41;5056295;28;20077;-82
2022/08/20 00:23:21;;;;;;;13.20;3.63;;;;;;;19.74;89.23;99786.53;5055883;28;20052;-86
2022/08/20 00:25:47;;;;;;;12.95;3.08;;;;;;;19.66;91.00;99790.94;5054879;28;20059;-82
2022/08/20 00:28:14;;;;;;;6.35;2.22;;;;;;;19.64;90.85;99784.91;5053253;28;20065;-79
2022/08/20 00:30:41;;;;;;;4.20;1.17;;;;;;;19.92;89.95;99790.09;5051194;28;20543;-81
2022/08/20 00:33:11;;;;;;;2.70;0.80;;;;;;;20.19;87.32;99787.28;5053653;28;20037;-81
2022/08/20 00:35:41;;;;;;;4.38;1.50;;;;;;;20.30;87.49;99783.00;5054379;28;20048;-86
2022/08/20 00:38:07;;;;;;;5.05;1.67;;;;;;;20.48;87.28;99794.03;5055828;28;20045;-88
2022/08/20 00:40:42;;;;;;;6.65;2.20;;;;;;;20.51;87.48;99787.00;5039910;28;20045;-81
2022/08/20 00:43:36;;;;;;;5.82;1.15;;;;;;;20.36;86.06;99803.03;5033388;28;20045;-78
2022/08/20 00:46:06;;;;;;;6.05;1.92;;;;;;;20.07;89.13;99801.78;5043302;28;20037;-87
2022/08/20 00:48:34;;;;;;;3.05;1.15;;;;;;;19.95;88.13;99794.16;5053968;28;20086;-81
2022/08/20 00:51:08;;;;;;;6.32;2.33;;;;;;;20.03;88.74;99792.50;5053847;28;20041;-81
2022/08/20 00:53:35;;;;;;;3.55;1.65;;;;;;;20.23;87.63;99792.97;5035723;28;20032;-80
2022/08/20 00:56:01;;;;;;;4.25;2.33;;;;;;;20.38;87.59;99800.72;5054125;28;20076;-88
2022/08/20 00:58:27;;;;;;;5.65;2.58;;;;;;;20.46;88.06;99801.06;5037100;28;20055;-87
2022/08/20 01:00:53;;;;;;;5.00;2.72;;;;;;;20.47;86.68;99799.91;5037099;28;20037;-81
2022/08/20 01:03:19;;;;;;;6.93;3.03;;;;;;;20.58;87.61;99798.41;5033063;28;20060;-80
2022/08/20 01:05:48;;;;;;;10.68;6.78;;;;;;;20.68;87.79;99796.41;5033696;28;20053;-81
2022/08/20 01:08:17;;;;;;;11.35;7.68;;;;;;;20.77;88.50;99805.47;5032840;28;20042;-80
2022/08/20 01:10:47;;;;;;;13.93;7.80;;;;;;;20.73;88.54;99804.50;5051343;28;20044;-80
2022/08/20 01:13:16;;;;;;;14.18;8.88;;;;;;;20.62;88.84;99801.31;5050581;28;20048;-81
2022/08/20 01:15:44;;;;;;;17.90;10.05;;;;;;;20.65;89.46;99806.19;5051338;28;20109;-81
2022/08/20 01:18:17;;;;;;;20.88;12.23;;;;;;;20.74;89.78;99803.38;5051431;28;20102;-80
2022/08/20 01:20:48;;;;;;;20.53;11.93;;;;;;;20.90;88.97;99808.34;5050891;28;20123;-82
2022/08/20 01:23:31;;;;;;;19.45;13.30;;;;;;;20.94;88.35;99817.59;5051627;28;20101;-79
2022/08/20 01:26:02;;;;;;;21.97;12.87;;;;;;;20.84;89.83;99822.41;5051590;28;20049;-79
2022/08/20 01:28:34;;;;;;;20.13;13.13;;;;;;;20.87;89.10;99824.47;5050265;28;20282;-79
2022/08/20 01:30:59;;;;;;;21.23;12.77;;;;;;;20.93;88.72;99822.31;5051760;28;20037;-87
2022/08/20 01:33:24;;;;;;;22.38;13.57;;;;;;;20.72;89.73;99822.28;5036274;28;20044;-87
2022/08/20 01:35:52;;;;;;;25.88;17.35;;;;;;;20.56;91.29;99820.06;5053721;28;20044;-81
2022/08/20 01:38:18;;;;;;;25.23;14.45;;;;;;;20.76;90.94;99823.25;5051552;28;20480;-80
2022/08/20 01:41:08;;;;;;;26.15;16.42;;;;;;;20.72;91.14;99825.88;5050842;28;20106;-90
2022/08/20 01:43:33;;;;;;;32.03;16.45;;;;;;;20.71;90.77;99821.47;5054301;28;20505;-90
2022/08/20 01:46:00;;;;;;;23.73;14.75;;;;;;;20.55;91.00;99812.91;5054040;28;20064;-81
2022/08/20 01:48:26;;;;;;;26.95;16.40;;;;;;;20.75;90.85;99818.84;5051377;28;20041;-81
2022/08/20 01:51:29;;;;;;;23.10;15.05;;;;;;;20.68;90.81;99821.31;5033497;28;20033;-87
2022/08/20 01:53:58;;;;;;;19.65;13.05;;;;;;;20.49;91.52;99815.03;4935042;29;20046;-87
2022/08/20 01:56:26;;;;;;;28.92;17.83;;;;;;;20.64;90.84;99813.66;5035990;28;20170;-89
2022/08/20 01:58:55;;;;;;;24.80;16.73;;;;;;;20.64;90.85;99819.19;5035617;28;20066;-90
2022/08/20 02:01:39;;;;;;;21.23;13.95;;;;;;;20.46;92.63;99806.59;5054312;28;20041;-89
2022/08/20 02:04:07;;;;;;;25.08;15.25;;;;;;;20.47;91.58;99813.75;5054319;28;20036;-90
2022/08/20 02:06:35;;;;;;;22.50;14.00;;;;;;;20.47;92.22;99809.03;5035407;28;20037;-81
2022/08/20 02:09:01;;;;;;;25.70;14.50;;;;;;;20.38;91.79;99808.25;5032786;28;20090;-81
2022/08/20 02:11:30;;;;;;;23.38;15.95;;;;;;;20.49;92.25;99812.28;5050368;28;20603;-79
2022/08/20 02:13:56;;;;;;;24.73;15.75;;;;;;;20.33;92.98;99809.22;5050234;28;20033;-79
2022/08/20 02:16:27;;;;;;;27.50;15.80;;;;;;;20.64;91.81;99813.66;5051871;28;20120;-89
2022/08/20 02:18:57;;;;;;;25.23;14.52;;;;;;;20.41;91.94;99813.94;5050808;28;20082;-89
2022/08/20 02:21:24;;;;;;;25.42;15.70;;;;;;;20.53;92.49;99817.94;5034398;28;20034;-87
2022/08/20 02:23:49;;;;;;;24.23;15.50;;;;;;;20.40;92.45;99815.06;5033746;28;20044;-86
2022/08/20 02:26:17;;;;;;;26.40;16.60;;;;;;;20.62;91.30;99818.75;5032592;28;20607;-81
2022/08/20 02:28:47;;;;;;;20.55;13.77;;;;;;;20.57;91.90;99818.09;5016183;28;20350;-81
2022/08/20 02:31:12;;;;;;;30.75;17.60;;;;;;;20.40;92.63;99822.56;5030419;28;20041;-79
2022/08/20 02:33:37;;;;;;;28.50;15.27;;;;;;;20.52;92.04;99822.66;5029982;28;20508;-80
2022/08/20 02:36:03;;;;;;;27.25;16.48;;;;;;;20.68;90.63;99824.09;5031455;28;20246;-85
2022/08/20 02:38:28;;;;;;;29.38;14.98;;;;;;;20.59;91.34;99822.16;5019259;28;20080;-86
2022/08/20 02:40:54;;;;;;;29.02;17.23;;;;;;;20.77;91.13;99816.53;5053065;28;20665;-86
2022/08/20 02:43:20;;;;;;;31.55;19.52;;;;;;;20.89;90.11;99813.06;5052091;28;20037;-80
2022/08/20 02:45:45;;;;;;;30.80;18.92;;;;;;;20.89;90.29;99810.28;5033101;28;20033;-80
2022/08/20 02:48:19;;;;;;;30.00;19.15;;;;;;;20.96;89.79;99812.53;5053543;28;20095;-90
2022/08/20 02:50:47;;;;;;;31.77;17.63;;;;;;;20.79;89.93;99810.69;5059263;28;20045;-84
2022/08/20 02:53:14;;;;;;;30.70;18.50;;;;;;;20.79;90.77;99825.34;5040012;28;20047;-83
2022/08/20 02:55:39;;;;;;;26.63;16.35;;;;;;;20.67;91.18;99819.69;5057856;28;20120;-87
2022/08/20 02:58:04;;;;;;;29.38;18.08;;;;;;;20.88;90.07;99815.03;5058046;28;20106;-87
2022/08/20 03:00:30;;;;;;;37.08;16.90;;;;;;;20.86;90.27;99820.09;5057317;28;20488;-84
2022/08/20 03:02:56;;;;;;;28.70;17.17;;;;;;;20.90;89.22;99816.66;5057614;28;20472;-84
2022/08/20 03:05:21;;;;;;;32.75;18.80;;;;;;;20.88;89.69;99812.28;5057672;28;20043;-84
2022/08/20 03:07:52;;;;;;;29.25;17.98;;;;;;;20.90;89.55;99819.41;5057356;28;20060;-84
2022/08/20 03:10:24;;;;;;;30.50;19.63;;;;;;;20.80;89.77;99813.13;5056467;28;20045;-84
2022/08/20 03:12:51;;;;;;;31.10;19.15;;;;;;;20.77;90.14;99816.53;5057461;28;20091;-84
2022/08/20 03:15:18;;;;;;;31.13;18.52;;;;;;;20.77;90.01;99811.00;5057090;28;20131;-84
2022/08/20 03:17:43;;;;;;;31.08;17.52;;;;;;;20.80;89.63;99817.84;5056993;28;20044;-84
2022/08/20 03:20:10;;;;;;;35.28;19.05;;;;;;;20.65;90.79;99820.03;5055906;28;20480;-84
2022/08/20 03:22:35;;;;;;;28.27;18.98;;;;;;;20.78;90.00;99812.66;5057554;28;20464;-90
2022/08/20 03:25:01;;;;;;;31.95;19.27;;;;;;;20.81;89.78;99820.28;5057694;28;20055;-90
2022/08/20 03:27:26;;;;;;;28.55;18.85;;;;;;;20.84;89.76;99816.84;5054212;28;20064;-78
2022/08/20 03:29:51;;;;;;;33.83;19.77;;;;;;;20.69;89.42;99817.38;5051707;28;20131;-79
2022/08/20 03:32:16;;;;;;;31.70;18.63;;;;;;;20.71;90.20;99812.34;5052749;28;20244;-78
2022/08/20 03:34:42;;;;;;;30.80;17.52;;;;;;;20.71;90.23;99815.09;5052819;28;20250;-78
2022/08/20 03:37:08;;;;;;;27.52;18.70;;;;;;;20.64;90.54;99810.09;5054068;28;20036;-81
2022/08/20 03:39:34;;;;;;;29.48;17.38;;;;;;;20.62;90.42;99810.44;5052721;28;20041;-80
2022/08/20 03:41:59;;;;;;;36.60;20.73;;;;;;;20.68;89.96;99807.47;5053611;28;20071;-79
2022/08/20 03:44:25;;;;;;;35.88;20.38;;;;;;;20.65;89.66;99809.75;5052928;28;20041;-79
2022/08/20 03:46:51;;;;;;;31.35;19.42;;;;;;;20.64;90.11;99810.09;5054166;28;20045;-90
2022/08/20 03:49:16;;;;;;;35.33;20.08;;;;;;;20.64;89.99;99799.81;5044658;28;20045;-90
2022/08/20 03:51:41;;;;;;;46.35;20.60;;;;;;;20.64;90.12;99808.13;5054858;28;20037;-79
2022/08/20 03:54:07;;;;;;;32.45;19.58;;;;;;;20.60;89.85;99801.66;5052867;28;20461;-78
2022/08/20 03:56:32;;;;;;;30.95;20.95;;;;;;;20.52;90.36;99794.19;5053476;28;20404;-87
2022/08/20 03:58:57;;;;;;;38.05;21.40;;;;;;;20.49;90.30;99797.59;5035812;28;20041;-87
2022/08/20 04:01:22;;;;;;;37.77;20.63;;;;;;;20.55;89.83;99792.69;5054358;28;20106;-79
2022/08/20 04:03:48;;;;;;;35.92;19.35;;;;;;;20.49;89.96;99795.66;5034766;28;20261;-79
2022/08/20 04:06:13;;;;;;;29.90;19.23;;;;;;;20.54;90.05;99786.38;5054681;28;20060;-90
2022/08/20 04:08:40;;;;;;;42.43;22.13;;;;;;;20.58;89.52;99792.88;5056982;28;20269;-89
2022/08/20 04:11:06;;;;;;;35.17;21.65;;;;;;;20.56;89.82;99789.63;5055635;28;20254;-79
2022/08/20 04:13:31;;;;;;;36.83;20.17;;;;;;;20.56;89.80;99797.91;5052097;28;20033;-79
2022/08/20 04:15:59;;;;;;;32.95;18.33;;;;;;;20.55;89.65;99792.69;5053001;28;20049;-82
2022/08/20 04:18:25;;;;;;;28.50;17.77;;;;;;;20.51;89.76;99798.91;5052835;28;20048;-80
2022/08/20 04:20:52;;;;;;;35.78;21.10;;;;;;;20.50;89.85;99799.25;5054752;28;20041;-90
2022/08/20 04:23:18;;;;;;;37.60;20.50;;;;;;;20.49;89.43;99806.72;5056393;28;20043;-90
2022/08/20 04:25:45;;;;;;;37.75;21.13;;;;;;;20.51;89.56;99806.41;5055915;28;20053;-85
2022/08/20 04:28:14;;;;;;;33.67;18.42;;;;;;;20.54;89.16;99814.06;5038229;28;20763;-86
2022/08/20 04:30:41;;;;;;;29.10;18.17;;;;;;;20.51;89.00;99809.97;5055132;28;20091;-80
2022/08/20 04:33:07;;;;;;;34.28;20.48;;;;;;;20.46;89.19;99812.13;5052829;28;20071;-80
2022/08/20 04:35:32;;;;;;;42.17;21.63;;;;;;;20.41;88.92;99819.47;5035541;28;20638;-80
2022/08/20 04:38:00;;;;;;;35.20;19.90;;;;;;;20.45;88.96;99822.38;5053351;28;20037;-81
2022/08/20 04:43:11;;;;;;;30.25;18.73;;;;;;;20.27;89.25;99824.38;5055642;28;20052;-85
2022/08/20 04:45:36;;;;;;;27.75;15.73;;;;;;;20.32;88.54;99835.25;5037827;28;20040;-86
2022/08/20 04:48:04;;;;;;;33.25;17.15;;;;;;;20.32;88.58;99834.47;5063436;28;20104;-86
2022/08/20 04:50:33;;;;;;;27.73;17.65;;;;;;;20.31;88.49;99839.19;5055118;28;20116;-81
2022/08/20 04:52:59;;;;;;;28.45;17.15;;;;;;;20.17;89.34;99842.16;5053213;28;20037;-81
2022/08/20 04:55:28;;;;;;;31.40;17.52;;;;;;;20.19;89.70;99853.72;5053033;28;20040;-80
2022/08/20 04:57:54;;;;;;;31.40;18.92;;;;;;;20.25;89.36;99857.94;5051361;28;20067;-79
2022/08/20 05:00:19;;;;;;;26.52;14.98;;;;;;;20.42;88.61;99851.53;5037344;28;20045;-78
2022/08/20 05:02:44;;;;;;;37.23;19.83;;;;;;;20.49;88.42;99850.22;5031174;28;20551;-79
2022/08/20 05:05:12;;;;;;;31.90;17.17;;;;;;;20.44;88.08;99847.63;5031190;28;20347;-79
2022/08/20 05:07:41;;;;;;;31.25;17.73;;;;;;;20.48;87.73;99848.59;5035273;28;20294;-86
2022/08/20 05:10:08;;;;;;;31.70;17.85;;;;;;;20.54;87.94;99858.34;5039009;28;20037;-86
2022/08/20 05:12:34;;;;;;;29.80;17.77;;;;;;;20.61;87.69;99857.81;5039113;28;20036;-86
2022/08/20 05:14:59;;;;;;;36.10;19.83;;;;;;;20.61;87.95;99855.06;5055343;28;20033;-85
2022/08/20 05:17:24;;;;;;;36.80;19.05;;;;;;;20.57;87.63;99862.41;5054610;28;20282;-86
2022/08/20 05:19:51;;;;;;;37.03;20.53;;;;;;;20.55;87.89;99864.69;5054028;28;20086;-86
2022/08/20 05:22:17;;;;;;;42.67;21.23;;;;;;;20.46;88.32;99859.19;5055031;28;20265;-85
2022/08/20 05:24:43;;;;;;;31.98;21.15;;;;;;;20.53;88.10;99867.78;5054504;28;20045;-85
2022/08/20 05:27:09;;;;;;;35.60;20.27;;;;;;;20.53;88.43;99867.78;5038358;28;20048;-78
2022/08/20 05:29:35;;;;;;;34.25;21.00;;;;;;;20.53;88.57;99873.31;5040825;28;20481;-79
2022/08/20 05:32:01;;;;;;;32.08;17.63;;;;;;;20.47;89.43;99869.09;5050915;28;20037;-79
2022/08/20 05:34:27;;;;;;;36.05;19.45;;;;;;;20.54;89.50;99866.66;5050391;28;20041;-79
2022/08/20 05:36:53;;;;;;;31.63;18.45;;;;;;;20.50;88.52;99868.47;5051505;28;20558;-80
2022/08/20 05:39:20;;;;;;;30.77;18.60;;;;;;;20.49;89.14;99864.06;5047002;28;20034;-80
2022/08/20 05:41:45;;;;;;;33.65;19.70;;;;;;;20.48;89.07;99863.22;5048230;28;20396;-80
2022/08/20 05:44:12;;;;;;;37.50;19.73;;;;;;;20.52;89.21;99868.94;5050793;28;20041;-81
2022/08/20 05:46:39;;;;;;;36.08;19.98;;;;;;;20.50;89.54;99858.19;5051183;28;20083;-79
2022/08/20 05:49:09;;;;;;;33.13;19.50;;;;;;;20.49;89.99;99862.09;5049583;28;20037;-80
2022/08/20 05:51:35;;;;;;;31.88;18.13;;;;;;;20.47;90.15;99867.16;5051767;28;20037;-80
2022/08/20 05:54:02;;;;;;;32.33;19.15;;;;;;;20.40;90.66;99866.88;5051893;28;20045;-80
2022/08/20 05:56:29;;;;;;;33.22;20.30;;;;;;;20.58;89.89;99875.13;5035356;28;20037;-83
2022/08/20 05:58:54;;;;;;;32.03;18.17;;;;;;;20.66;89.97;99879.81;5053643;28;20115;-84
2022/08/20 06:01:20;;;;;;;30.13;17.88;;;;;;;20.63;89.20;99874.94;5053222;28;20656;-81
2022/08/20 06:06:30;;;;;;;29.75;17.45;;;;;;;20.61;90.00;99880.81;5051052;28;20120;-80
2022/08/20 06:08:55;;;;;;;32.03;18.23;;;;;;;20.64;89.74;99880.13;5050013;28;20119;-80
2022/08/20 06:11:21;;;;;;;29.65;17.65;;;;;;;20.63;89.98;99872.97;5051048;28;20446;-79
2022/08/20 06:13:47;;;;;;;34.63;19.15;;;;;;;20.57;90.14;99877.06;5050711;28;20041;-81
2022/08/20 06:16:12;;;;;;;39.30;18.15;;;;;;;20.52;90.51;99874.47;5034265;28;20128;-92
2022/08/20 06:18:37;;;;;;;27.35;16.60;;;;;;;20.62;90.38;99887.97;5053277;28;20037;-92
2022/08/20 06:21:03;;;;;;;32.83;18.80;;;;;;;20.51;90.35;99879.19;5047515;28;20044;-82
2022/08/20 06:23:28;;;;;;;37.45;18.02;;;;;;;20.58;90.35;99881.47;5052171;28;20337;-81
2022/08/20 06:25:53;;;;;;;31.25;16.17;;;;;;;20.60;89.82;99873.66;5052082;28;20041;-86
2022/08/20 06:28:19;;;;;;;30.35;18.83;;;;;;;20.61;89.52;99872.50;5053999;28;20049;-85
2022/08/20 06:30:44;;;;;;;26.60;16.53;;;;;;;20.60;89.26;99870.88;5037255;28;20045;-86
2022/08/20 06:33:09;;;;;;;31.15;16.67;;;;;;;20.52;89.62;99872.50;5015918;28;20864;-87
2022/08/20 06:35:36;;;;;;;26.93;16.20;;;;;;;20.60;89.93;99881.13;5033984;28;20476;-80
2022/08/20 06:38:04;;;;;;;26.80;15.45;;;;;;;20.51;90.50;99881.16;5040260;28;20345;-81
2022/08/20 06:40:30;;;;;;;26.60;15.57;;;;;;;20.56;90.30;99878.22;5049985;28;20124;-82
2022/08/20 06:42:56;;;;;;;25.30;14.40;;;;;;;20.47;91.14;99883.78;5050009;28;20156;-81
2022/08/20 06:45:27;;;;;;;22.55;14.50;;;;;;;20.49;90.68;99875.94;5050139;28;20055;-81
2022/08/20 06:47:56;;;;;;;22.75;14.52;;;;;;;20.47;90.71;99881.00;5060070;28;20033;-86
2022/08/20 06:50:26;;;;;;;29.42;17.10;;;;;;;20.48;90.93;99879.06;5054278;28;20476;-86
2022/08/20 06:52:51;;;;;;;23.48;14.63;;;;;;;20.34;90.40;99876.47;5054132;28;20033;-87
2022/08/20 06:55:16;;;;;;;28.38;16.65;;;;;;;20.61;90.35;99878.03;5053888;28;20033;-87
2022/08/20 06:57:42;;;;;;;24.25;15.48;;;;;;;20.80;90.02;99876.84;5053734;28;20041;-93
2022/08/20 07:00:17;;;;;;;24.40;15.38;;;;;;;20.84;89.31;99874.22;5052860;28;20078;-92
2022/08/20 07:02:43;;;;;;;27.05;15.05;;;;;;;20.85;89.29;99879.41;5053692;28;20044;-85
2022/08/20 07:05:09;;;;;;;23.83;14.50;;;;;;;20.87;89.06;99882.66;5053569;28;20499;-86
2022/08/20 07:07:36;;;;;;;20.67;13.23;;;;;;;20.87;88.31;99893.75;5053766;28;20033;-86
2022/08/20 07:10:05;;;;;;;26.85;15.13;;;;;;;20.86;88.49;99894.91;5040991;28;20412;-86
2022/08/20 07:12:30;;;;;;;21.80;13.63;;;;;;;20.90;88.52;99892.28;5035371;28;20492;-87
2022/08/20 07:14:56;;;;;;;21.42;14.15;;;;;;;20.97;88.80;99900.09;5035605;28;20051;-87
2022/08/20 07:17:21;;;;;;;17.83;12.18;;;;;;;20.96;88.42;99901.22;5054014;28;20067;-80
2022/08/20 07:19:46;;;;;;;23.63;14.70;;;;;;;21.20;88.60;99910.91;5047910;28;20157;-80
2022/08/20 07:22:13;;;;;;;18.90;10.55;;;;;;;20.47;90.04;99905.91;5032586;28;20259;-86
2022/08/20 07:24:39;;;;;;;15.60;10.13;;;;;;;20.64;90.02;99902.28;5032961;28;20477;-86
2022/08/20 07:27:05;;;;;;;15.48;10.30;;;;;;;20.82;88.53;99899.47;5033303;28;20037;-86
2022/08/20 07:32:33;;;;;;;18.05;10.90;;;;;;;20.82;88.62;99902.25;5042987;28;20384;-86
2022/08/20 07:32:35;;;;;;;17.92;11.45;;;;;;;21.01;87.40;99909.38;5050434;28;20647;-79
2022/08/20 07:35:03;;;;;;;20.08;11.43;;;;;;;21.00;87.69;99902.19;5051859;28;20037;-79
2022/08/20 07:37:28;;;;;;;17.27;11.38;;;;;;;20.81;88.37;99906.16;5056690;28;20033;-85
2022/08/20 07:39:53;;;;;;;17.43;9.90;;;;;;;20.99;87.71;99906.13;5038040;28;20041;-85
2022/08/20 07:42:18;;;;;;;17.80;11.30;;;;;;;21.02;87.38;99912.94;5055065;28;20335;-80
2022/08/20 07:44:44;;;;;;;23.45;11.63;;;;;;;21.15;87.58;99905.56;5054190;28;20270;-80
2022/08/20 07:47:09;;;;;;;16.10;9.82;;;;;;;21.10;86.94;99907.38;5056149;28;20070;-90
2022/08/20 07:49:38;;;;;;;16.40;9.48;;;;;;;21.04;87.11;99908.69;5054737;28;20041;-91
2022/08/20 07:52:05;;;;;;;16.40;10.18;;;;;;;21.19;87.08;99912.06;5053699;28;20063;-79
2022/08/20 07:54:30;;;;;;;15.85;11.18;;;;;;;21.22;87.57;99916.94;5052545;28;20044;-80
2022/08/20 07:57:01;;;;;;;13.73;9.02;;;;;;;21.08;88.35;99919.94;5037162;28;20037;-84
2022/08/20 07:59:27;;;;;;;16.40;10.77;;;;;;;21.17;87.90;99915.19;5055539;28;20037;-85
2022/08/20 08:01:52;;;;;;;14.85;9.68;;;;;;;21.09;87.98;99916.81;5054002;28;20036;-78
2022/08/20 08:04:17;;;;;;;18.10;11.00;;;;;;;21.45;87.60;99916.66;5052202;28;20041;-79
2022/08/20 08:06:44;;;;;;;13.98;8.82;;;;;;;20.79;88.90;99916.75;5037005;28;20082;-85
2022/08/20 08:09:13;;;;;;;11.73;7.82;;;;;;;21.25;88.12;99919.06;5052199;28;20524;-85
2022/08/20 08:11:42;;;;;;;12.50;8.25;;;;;;;21.42;87.47;99928.41;5036197;28;20144;-82
2022/08/20 08:14:10;;;;;;;14.00;9.98;;;;;;;21.44;87.36;99929.69;5052829;28;20123;-82
2022/08/20 08:16:36;;;;;;;13.93;8.90;;;;;;;21.44;87.82;99931.66;5075777;28;20040;-90
2022/08/20 08:19:05;;;;;;;16.15;10.80;;;;;;;21.63;86.36;99927.63;5065595;28;20037;-90
2022/08/20 08:21:30;;;;;;;14.55;9.60;;;;;;;21.26;86.78;99926.22;5035164;28;20507;-79
2022/08/20 08:23:55;;;;;;;13.73;8.63;;;;;;;21.50;87.38;99929.53;5015004;28;20045;-79
2022/08/20 08:26:21;;;;;;;13.83;9.43;;;;;;;21.40;87.21;99930.72;5032691;28;20041;-79
2022/08/20 08:28:46;;;;;;;15.07;9.52;;;;;;;21.03;88.57;99933.97;5036124;28;20309;-78
2022/08/20 08:31:13;;;;;;;12.80;7.65;;;;;;;20.86;88.14;99942.00;5051733;28;20055;-78
2022/08/20 08:33:39;;;;;;;12.30;8.10;;;;;;;21.04;88.25;99925.34;5051378;28;20033;-78
2022/08/20 08:36:15;;;;;;;11.88;7.38;;;;;;;21.61;85.81;99927.97;5052617;28;20064;-85
2022/08/20 08:38:42;;;;;;;14.52;9.15;;;;;;;21.76;85.87;99915.47;5054741;28;20033;-84
2022/08/20 08:41:24;;;;;;;14.10;8.20;;;;;;;21.33;85.30;99925.69;5054289;28;20452;-77
2022/08/20 08:43:52;;;;;;;13.57;7.78;;;;;;;21.34;85.37;99921.75;5050372;28;20041;-77
2022/08/20 08:46:22;;;;;;;13.20;7.93;;;;;;;21.32;86.60;99924.88;5040510;28;20523;-79
2022/08/20 08:48:52;;;;;;;12.77;8.40;;;;;;;21.51;84.43;99929.19;5045292;28;20037;-80
2022/08/20 08:51:38;;;;;;;15.85;9.55;;;;;;;21.96;82.59;99917.81;5053227;28;20044;-86
2022/08/20 08:54:04;;;;;;;21.63;13.43;;;;;;;21.58;84.31;99931.44;5055351;28;20033;-86
2022/08/20 08:56:30;;;;;;;25.52;15.23;;;;;;;21.58;85.10;99935.00;5055380;28;20048;-83
2022/08/20 08:59:03;;;;;;;20.35;13.48;;;;;;;21.55;84.82;99938.44;5054149;28;20036;-83
2022/08/20 09:01:31;;;;;;;21.95;15.55;;;;;;;21.68;84.48;99935.78;5055154;28;20697;-83
2022/08/20 09:03:57;;;;;;;21.67;13.85;;;;;;;21.43;85.11;99941.13;5054914;28;20045;-82
2022/08/20 09:06:24;;;;;;;26.55;16.55;;;;;;;21.51;85.56;99945.81;5053540;28;20730;-80
2022/08/20 09:08:51;;;;;;;25.40;15.65;;;;;;;21.33;85.46;99948.69;5033452;28;20049;-80
2022/08/20 09:11:19;;;;;;;24.67;17.13;;;;;;;21.07;86.90;99949.59;5052904;28;20120;-80
2022/08/20 09:13:44;;;;;;;25.00;15.75;;;;;;;21.09;85.76;99950.06;5052195;28;20079;-79
2022/08/20 09:16:11;;;;;;;28.05;18.52;;;;;;;20.92;86.82;99955.66;5026219;28;20080;-85
2022/08/20 09:18:37;;;;;;;32.45;20.30;;;;;;;21.34;86.05;99950.31;5046514;28;20033;-82
2022/08/20 09:21:03;;;;;;;38.22;21.88;;;;;;;21.29;85.17;99956.03;5045120;28;20099;-80
2022/08/20 09:23:28;;;;;;;34.90;23.55;;;;;;;21.08;86.45;99954.00;5051085;28;20388;-80
2022/08/20 09:25:53;;;;;;;37.00;24.50;;;;;;;21.11;86.81;99953.34;5052195;28;20055;-87
2022/08/20 09:28:19;;;;;;;48.00;29.65;;;;;;;21.26;85.58;99953.09;5033853;28;20282;-87
2022/08/20 09:30:44;;;;;;;42.93;28.33;;;;;;;21.10;85.13;99950.91;5052366;28;20052;-87
2022/08/20 09:33:09;;;;;;;44.45;29.58;;;;;;;20.95;86.74;99955.00;5054137;28;20699;-87
2022/08/20 09:35:35;;;;;;;46.65;28.98;;;;;;;20.86;86.61;99953.09;5023321;28;20033;-77
2022/08/20 09:38:00;;;;;;;44.55;29.13;;;;;;;21.23;85.88;99960.16;5050913;28;20037;-77
2022/08/20 09:40:26;;;;;;;51.63;34.33;;;;;;;21.36;85.17;99960.25;5049391;28;20036;-81
2022/08/20 09:42:52;;;;;;;47.95;31.88;;;;;;;21.15;85.59;99961.00;5047904;28;20306;-82
2022/08/20 09:45:18;;;;;;;46.08;28.48;;;;;;;21.01;85.49;99962.03;5016299;28;20049;-82
2022/08/20 09:47:43;;;;;;;46.80;29.10;;;;;;;21.38;85.07;99960.75;5039721;28;20049;-81
2022/08/20 09:50:09;;;;;;;42.60;27.77;;;;;;;21.68;83.52;99957.97;5050836;28;20063;-81
2022/08/20 09:52:38;;;;;;;39.70;27.63;;;;;;;21.57;83.68;99958.34;5035279;28;20394;-81
2022/08/20 09:55:15;;;;;;;40.40;28.75;;;;;;;21.57;83.44;99952.78;5053900;28;20040;-81
2022/08/20 09:57:41;;;;;;;41.85;28.33;;;;;;;21.05;84.12;99959.41;5053582;28;20566;-87
2022/08/20 10:00:10;;;;;;;38.67;25.08;;;;;;;20.82;85.67;99965.97;5053517;28;20041;-85
2022/08/20 10:02:35;;;;;;;45.25;29.08;;;;;;;20.80;85.70;99967.44;5054290;28;20052;-87
2022/08/20 10:05:01;;;;;;;38.37;24.37;;;;;;;20.68;85.51;99974.47;5054159;28;20040;-86
2022/08/20 10:07:26;;;;;;;43.47;27.43;;;;;;;20.93;84.89;99965.59;5052938;28;20609;-86
2022/08/20 10:09:51;;;;;;;46.73;27.63;;;;;;;20.86;85.07;99975.25;5052629;28;20033;-86
2022/08/20 10:12:16;;;;;;;44.03;29.70;;;;;;;20.92;83.21;99978.66;5053688;28;20336;-86
2022/08/20 10:14:42;;;;;;;45.45;26.92;;;;;;;20.67;83.86;99980.31;5054430;28;20389;-86
2022/08/20 10:17:07;;;;;;;48.38;28.75;;;;;;;20.83;83.90;99975.88;5053963;28;20387;-86
2022/08/20 10:19:33;;;;;;;40.53;28.48;;;;;;;20.96;83.58;99984.34;5052873;28;20803;-87
2022/08/20 10:21:59;;;;;;;38.83;24.58;;;;;;;21.03;81.90;99978.31;5053688;28;20033;-86
2022/08/20 10:24:25;;;;;;;37.88;25.33;;;;;;;21.54;80.77;99972.06;5053710;28;20049;-86
2022/08/20 10:26:57;;;;;;;40.13;24.45;;;;;;;21.33;80.86;99976.41;5053322;28;20041;-82
2022/08/20 10:29:23;;;;;;;39.92;24.90;;;;;;;21.29;81.72;99975.47;5051631;28;20064;-82
2022/08/20 10:31:48;;;;;;;34.15;23.20;;;;;;;21.85;79.82;99982.03;5053062;28;20076;-85
2022/08/20 10:34:13;;;;;;;32.80;20.27;;;;;;;21.12;80.77;99987.41;5053273;28;20044;-84
2022/08/20 10:36:41;;;;;;;37.57;23.00;;;;;;;21.19;81.26;99987.72;5052366;28;20848;-80
2022/08/20 10:39:06;;;;;;;37.45;23.33;;;;;;;21.42;81.28;99986.63;5048807;28;20273;-80
2022/08/20 10:41:31;;;;;;;42.40;26.00;;;;;;;21.40;81.34;99980.63;5052489;28;20044;-85
2022/08/20 10:43:56;;;;;;;33.13;20.50;;;;;;;21.91;79.15;99982.63;5054083;28;20250;-85
2022/08/20 10:46:22;;;;;;;32.43;22.10;;;;;;;21.99;78.39;99978.97;5052904;28;20277;-80
2022/08/20 10:48:47;;;;;;;37.60;24.00;;;;;;;21.90;78.26;99986.56;5031098;28;20352;-79
2022/08/20 10:51:12;;;;;;;34.07;22.87;;;;;;;21.31;78.90;99983.44;5032026;28;20064;-82
2022/08/20 10:53:38;;;;;;;33.42;23.92;;;;;;;21.57;79.05;99980.53;5033009;28;20279;-82
2022/08/20 10:56:03;;;;;;;38.13;24.60;;;;;;;21.87;78.10;99981.69;5032316;28;20052;-79
2022/08/20 10:58:29;;;;;;;31.35;21.10;;;;;;;21.50;78.18;99983.00;5032935;28;20041;-79
2022/08/20 11:00:54;;;;;;;31.45;20.30;;;;;;;21.64;76.67;99973.66;5033113;28;20036;-85
2022/08/20 11:03:19;;;;;;;32.93;21.27;;;;;;;21.46;78.71;99974.53;5053532;28;20049;-85
2022/08/20 11:05:46;;;;;;;28.70;19.33;;;;;;;21.76;77.59;99976.50;5035687;28;20331;-82
2022/08/20 11:08:11;;;;;;;24.05;16.23;;;;;;;22.19;76.44;99979.31;5034654;28;20096;-83
2022/08/20 11:10:37;;;;;;;31.38;16.38;;;;;;;22.21;75.71;99979.78;5039712;28;20049;-85
2022/08/20 11:13:05;;;;;;;29.25;15.95;;;;;;;22.04;75.74;99981.56;5045385;28;20099;-85
2022/08/20 11:15:34;;;;;;;23.30;16.35;;;;;;;21.73;75.63;99979.94;5057430;28;20248;-79
2022/08/20 11:17:59;;;;;;;24.30;16.15;;;;;;;22.02;74.63;99983.06;5035928;28;20128;-80
2022/08/20 11:20:25;;;;;;;25.63;16.70;;;;;;;22.28;73.34;99976.47;5051981;28;20192;-79
2022/08/20 11:22:51;;;;;;;26.60;16.42;;;;;;;22.46;73.76;99974.34;5054067;28;20636;-80
2022/08/20 11:25:17;;;;;;;25.13;15.30;;;;;;;22.82;72.39;99988.72;5053643;28;20169;-81